Main page
METAR-TAF:

METAR-TAF

Airports :

Ørland Main Air Station

Ørland, Norway

latitude: 63-42N, longitude: 009-36E, elevation: 0 m

Current weather observation

The report was made 17 minutes ago, at 06:50 UTC
Wind 16 kt from the Southeast
Temperature 1°C
Humidity 86%
Pressure 1022 hPa
Visibility 10 km or more
no clouds below 1500 m and no cumulonimbus

METAR: ENOL 210650Z 13016KT CAVOK 01/M01 Q1022 NOSIG

Time: 08:07 (07:07 UTC)

Forecast

Forecast valid from 21 at 06 UTC to 22 at 06 UTC
Wind 15 kt from the East/Southeast
Visibility 10 km or more
no clouds below 1500 m and no cumulonimbus
Temporary
from 21 at 08 UTC to 22 at 06 UTC
Wind 20 kt from the Southeast with gusts up to 30 kt

TAF: ENOL 2106/2206 12015KT CAVOK TEMPO 2108/2206 14020G30KT

Weather observations and forecasts of more than 4000 airports (METAR and TAF reports).

The available stations are represented by yellow and red dots on the map.

Hover mouse over dot to see the name of the station.

Then click to see weather observations and forecasts.

To change the map : click on the green buttons with a black cross to zoom in, on the green button with a dash to zoom out, or on the green arrows for adjacent maps.


METAR-TAF: